Flight Track Log - Related Links

Times and Time Zones

All times are in EDT time to prevent confusion due to time zone crossing. See the VH-NCK flight status page for this flight to view local times or setup timezone preferences in your user account.

Time Position Orientation Groundspeed Altitude Reporting Facility
EDT Latitude Longitude Course Direction KTS MPH feet Rate Location/Type
Thu 11:34:02 PM -16.2220 127.4398 249° West  Level Estimated
Thu 11:35:02 PM -16.2388 127.3933 250° West  Level FlightAware
Thu 11:36:02 PM -16.2534 127.3510 250° West  Level Estimated
Thu 11:37:02 PM -16.2682 127.3083 250° West  Level FlightAware
Thu 11:38:02 PM -16.2829 127.2660 250° West  Level Estimated
Thu 11:39:02 PM -16.2977 127.2233 250° West  Level FlightAware
Thu 11:40:02 PM -16.3123 127.1810 250° West  Level Estimated
Thu 11:41:02 PM -16.3270 127.1383 250° West  Level FlightAware
Thu 11:42:02 PM -16.3416 127.0959 250° West  Level Estimated
Thu 11:43:02 PM -16.3564 127.0532 250° West  Level FlightAware
Thu 11:44:02 PM -16.3710 127.0108 250° West  Level Estimated
Thu 11:45:02 PM -16.3857 126.9681 250° West  Level FlightAware
Thu 11:46:02 PM -16.4003 126.9257 250° West  Level Estimated
Thu 11:47:02 PM -16.4150 126.8830 250° West  Level FlightAware
Thu 11:48:02 PM -16.4295 126.8406 250° West  Level Estimated
Thu 11:49:02 PM -16.4442 126.7978 250° West  Level FlightAware
Thu 11:50:02 PM -16.4587 126.7554 250° West  Level Estimated
Thu 11:51:02 PM -16.4686 126.7269 250° West  Level FlightAware
Thu 11:52:02 PM -16.4831 126.6844 250° West  Level Estimated
Thu 11:53:02 PM -16.4978 126.6417 250° West  Level FlightAware
Thu 11:54:02 PM -16.5122 126.5992 250° West  Level Estimated
Thu 11:55:02 PM -16.5269 126.5564 250° West  Level FlightAware
Thu 11:56:02 PM -16.5414 126.5140 250° West  Level Estimated
Thu 11:57:02 PM -16.5560 126.4712 250° West  Level FlightAware
Thu 11:58:02 PM -16.5705 126.4287 250° West  Level Estimated
Thu 11:59:02 PM -16.5851 126.3859 250° West  Level FlightAware
Fri 12:00:02 AM -16.5995 126.3435 250° West  Level Estimated
Fri 12:01:02 AM -16.6141 126.3007 250° West  Level FlightAware
Fri 12:02:02 AM -16.6286 126.2582 250° West  Level Estimated
Fri 12:03:02 AM -16.6432 126.2153 251° West  Level FlightAware
Fri 12:04:02 AM -16.6575 126.1728 250° West  Level Estimated
Fri 12:05:02 AM -16.6721 126.1300 251° West  Level FlightAware
Fri 12:06:02 AM -16.6865 126.0875 250° West  Level Estimated
Fri 12:07:02 AM -16.7011 126.0446 251° West  Level FlightAware
Fri 12:08:02 AM -16.7154 126.0021 250° West  Level Estimated
Fri 12:09:02 AM -16.7300 125.9592 251° West  Level FlightAware
Fri 12:10:02 AM -16.7443 125.9167 251° West  Level Estimated
Fri 12:11:02 AM -16.7588 125.8738 251° West  Level FlightAware
Fri 12:12:02 AM -16.7732 125.8312 251° West  Level Estimated
Fri 12:13:02 AM -16.7877 125.7883 251° West  Level FlightAware
Fri 12:14:02 AM -16.8020 125.7458 251° West  Level Estimated
Fri 12:15:02 AM -16.8165 125.7029 251° West  Level FlightAware
Fri 12:16:02 AM -16.8307 125.6603 251° West  Level Estimated
Fri 12:17:02 AM -16.8452 125.6174 251° West  Level FlightAware
Fri 12:18:02 AM -16.8595 125.5748 251° West  Level Estimated
Fri 12:19:02 AM -16.8740 125.5318 251° West  Level FlightAware
Fri 12:20:02 AM -16.8882 125.4892 251° West  Level Estimated
Fri 12:21:02 AM -16.9027 125.4463 251° West  Level FlightAware
Fri 12:22:02 AM -16.9169 125.4037 251° West  Level Estimated
Fri 12:23:02 AM -16.9313 125.3607 251° West  Level FlightAware
Fri 12:24:02 AM -16.9455 125.3181 251° West  Level Estimated
Fri 12:25:02 AM -16.9599 125.2751 251° West  Level FlightAware
Fri 12:26:02 AM -16.9741 125.2325 251° West  Level Estimated
Fri 12:27:02 AM -16.9885 125.1895 251° West  Level FlightAware
Fri 12:28:02 AM -17.0027 125.1468 251° West  Level Estimated
Fri 12:29:02 AM -17.0171 125.1038 251° West  Level FlightAware
Fri 12:30:02 AM -17.0312 125.0611 251° West  Level Estimated
Fri 12:31:02 AM -17.0456 125.0181 251° West  Level FlightAware
Fri 12:32:02 AM -17.0597 124.9754 251° West  Level Estimated
Fri 12:33:02 AM -17.0741 124.9324 251° West  Level FlightAware
Fri 12:34:02 AM -17.0882 124.8897 251° West  Level Estimated
Fri 12:35:02 AM -17.1025 124.8467 251° West  Level FlightAware
Fri 12:36:02 AM -17.1166 124.8040 251° West  Level Estimated
Fri 12:37:02 AM -17.1309 124.7609 251° West  Level FlightAware
Fri 12:38:02 AM -17.1450 124.7182 251° West  Level Estimated
Fri 12:39:02 AM -17.1593 124.6751 251° West  Level FlightAware
Fri 12:40:02 AM -17.1733 124.6324 251° West  Level Estimated
Fri 12:41:02 AM -17.1876 124.5893 251° West  Level FlightAware
Fri 12:42:02 AM -17.2017 124.5466 251° West  Level Estimated
Fri 12:43:02 AM -17.2159 124.5035 251° West  Level FlightAware
Fri 12:44:02 AM -17.2299 124.4607 251° West  Level Estimated
Fri 12:45:02 AM -17.2442 124.4176 251° West  Level FlightAware
Fri 12:46:02 AM -17.2582 124.3748 251° West  Level Estimated
Fri 12:47:02 AM -17.2724 124.3317 251° West  Level FlightAware
Fri 12:48:02 AM -17.2864 124.2889 251° West  Level Estimated
Fri 12:49:02 AM -17.3006 124.2458 251° West  Level FlightAware
Fri 12:50:02 AM -17.3145 124.2030 251° West  Level Estimated
Fri 12:51:02 AM -17.3287 124.1599 251° West  Level FlightAware
Fri 12:52:02 AM -17.3427 124.1170 251° West  Level Estimated
Fri 12:53:02 AM -17.3568 124.0739 251° West  Level FlightAware
Fri 12:54:02 AM -17.3708 124.0311 251° West  Level Estimated
Fri 12:55:02 AM -17.3849 123.9879 251° West  Level FlightAware
Fri 12:56:02 AM -17.3988 123.9450 251° West  Level Estimated
Fri 12:57:02 AM -17.4130 123.9019 251° West  Level FlightAware
Fri 12:58:02 AM -17.4268 123.8590 251° West  Level Estimated
Fri 12:59:02 AM -17.4410 123.8158 251° West  Level FlightAware
Fri 01:00:02 AM -17.4548 123.7729 251° West  Level Estimated
Fri 01:01:02 AM -17.4690 123.7297 251° West  Level FlightAware
Fri 01:02:02 AM -17.4828 123.6868 251° West  Level Estimated
Fri 01:03:02 AM -17.4969 123.6436 251° West  Level FlightAware
Fri 01:04:02 AM -17.5107 123.6007 251° West  Level Estimated
Fri 01:05:02 AM -17.5248 123.5575 251° West  Level FlightAware
Fri 01:06:02 AM -17.5385 123.5146 251° West  Level Estimated
Fri 01:07:02 AM -17.5480 123.4857 251° West  Level FlightAware
Fri 01:08:02 AM -17.5617 123.4428 251° West  Level Estimated
Fri 01:09:02 AM -17.5758 123.3995 251° West  Level FlightAware
Fri 01:10:02 AM -17.5895 123.3566 251° West  Level Estimated
Fri 01:11:02 AM -17.6036 123.3133 252° West  Level FlightAware
Fri 01:12:02 AM -17.6173 123.2703 251° West  Level Estimated
Fri 01:13:02 AM -17.6313 123.2271 252° West  Level FlightAware
Fri 01:14:02 AM -17.6450 123.1841 251° West  Level Estimated
Fri 01:15:02 AM -17.6591 123.1408 252° West  Level FlightAware
Fri 01:16:02 AM -17.6727 123.0978 251° West  Level Estimated
Fri 01:17:02 AM -17.6867 123.0545 252° West  Level FlightAware
Fri 01:18:02 AM -17.7003 123.0115 251° West  Level Estimated
Fri 01:19:02 AM -17.7144 122.9682 252° West  Level FlightAware
Fri 01:20:02 AM -17.7279 122.9252 251° West  Level Estimated
Fri 01:21:02 AM -17.7420 122.8819 252° West  Level FlightAware
Fri 01:22:02 AM -17.7555 122.8388 251° West  Level Estimated
Fri 01:23:02 AM -17.7695 122.7955 252° West  Level FlightAware
Fri 01:24:02 AM -17.7830 122.7524 251° West  Level Estimated
Fri 01:25:02 AM -17.7971 122.7091 252° West  Level FlightAware
Fri 01:26:02 AM -17.8104 122.6660 251° West  Level Estimated
Fri 01:27:02 AM -17.8246 122.6227 252° West  Level FlightAware
Fri 01:28:02 AM -17.8379 122.5796 251° West  Level Estimated
Fri 01:29:02 AM -17.8520 122.5363 252° West  Level FlightAware
Fri 01:30:02 AM -17.8652 122.4931 251° West  Level Estimated
Fri 01:31:02 AM -17.8794 122.4498 253° West  Level FlightAware
Fri 01:32:02 AM -17.8924 122.4065 251° West  Level Estimated
Fri 01:33:02 AM -17.9068 122.3633 253° West  Level FlightAware
Fri 01:34:02 AM -17.9193 122.3199 250° West  Level Estimated
Fri 01:35:02 AM -17.9341 122.2768 256° West  Level FlightAware
Fri 01:36:02 AM -17.9445 122.2327 223° Southwest  Level Estimated
Fri 01:37:02 AM -17.9496 122.2277 38° Northeast  Level FlightAware
Fri 01:38:02 AM -17.9154 122.2554 218° Southwest  Level Estimated
Fri 01:39:02 AM -17.9496 122.2277 38° Northeast  Level FlightAware
Fri 01:40:02 AM -17.9154 122.2554 218° Southwest  Level Estimated
Fri 01:41:02 AM -17.9496 122.2277 38° Northeast  Level FlightAware
Fri 01:42:02 AM -17.9154 122.2554 218° Southwest  Level Estimated
Fri 01:43:02 AM -17.9496 122.2277 38° Northeast  Level FlightAware
Fri 01:44:02 AM -17.9154 122.2554 218° Southwest  Level Estimated
Fri 01:45:02 AM -17.9496 122.2277 38° Northeast  Level FlightAware
Fri 01:46:02 AM -17.9154 122.2554 218° Southwest  Level Estimated
Fri 01:47:02 AM -17.9496 122.2277 38° Northeast  Level FlightAware
Fri 01:48:02 AM -17.9154 122.2554 218° Southwest  Level Estimated
Fri 01:49:02 AM -17.9496 122.2277 38° Northeast  Level FlightAware
Fri 01:50:02 AM -17.9154 122.2554 218° Southwest  Level Estimated
Fri 01:51:02 AM -17.9496 122.2277 218° Southwest  Level FlightAware

Login

Don't have an account? Register now (free) for customized features, flight alerts, and more!